Time;durP1;ratioP1;P1;durP2;ratioP2;P2;SDS_P1;SDS_P2;PMS_P1;PMS_P2;Temp;Humidity;BMP_temperature;BMP_pressure;BME280_temperature;BME280_humidity;BME280_pressure;Samples;Min_cycle;Max_cycle;Signal;HPM_P1;HPM_P2
2022/04/07 00:03:52;;;;;;;;;;;;;;;8.94;71.24;97529.50;8393356;28;20372;-70
2022/04/07 00:07:53;;;;;;;;;;;;;;;8.93;71.38;97532.53;8392925;28;20007;-70
2022/04/07 00:11:54;;;;;;;;;;;;;;;8.91;71.71;97524.78;8393305;28;19928;-71
2022/04/07 00:15:56;;;;;;;;;;;;;;;8.86;71.93;97525.81;8393304;28;20006;-70
2022/04/07 00:19:57;;;;;;;;;;;;;;;8.84;72.21;97519.94;8393408;28;19920;-71
2022/04/07 00:23:57;;;;;;;;;;;;;;;8.85;72.05;97516.16;8393289;28;20356;-70
2022/04/07 00:27:59;;;;;;;;;;;;;;;8.82;72.31;97508.75;8396695;28;19920;-71
2022/04/07 00:32:03;;;;;;;;;;;;;;;8.79;72.46;97505.94;8399458;28;19927;-70
2022/04/07 00:36:05;;;;;;;;;;;;;;;8.74;72.77;97504.25;8397556;28;20044;-71
2022/04/07 00:40:06;;;;;;;;;;;;;;;8.80;72.63;97492.16;8399067;28;20015;-70
2022/04/07 00:44:08;;;;;;;;;;;;;;;8.76;72.45;97502.00;8398901;28;19973;-70
2022/04/07 00:48:09;;;;;;;;;;;;;;;8.69;72.54;97496.38;8398414;28;20272;-70
2022/04/07 00:52:10;;;;;;;;;;;;;;;8.68;72.65;97494.81;8398234;28;19924;-70
2022/04/07 00:56:10;;;;;;;;;;;;;;;8.66;72.54;97490.91;8397548;28;19926;-70
2022/04/07 01:00:12;;;;;;;;;;;;;;;8.65;72.85;97484.72;8362177;28;20027;-70
2022/04/07 01:04:12;;;;;;;;;;;;;;;8.64;72.74;97483.16;8397961;28;19921;-71
2022/04/07 01:08:13;;;;;;;;;;;;;;;8.67;72.83;97482.47;8398486;28;20034;-70
2022/04/07 01:12:14;;;;;;;;;;;;;;;8.77;72.65;97476.69;8396726;28;20336;-71
2022/04/07 01:16:14;;;;;;;;;;;;;;;8.77;72.68;97473.97;8397204;28;19921;-70
2022/04/07 01:20:15;;;;;;;;;;;;;;;8.80;72.71;97470.59;8397246;28;19920;-71
2022/04/07 01:24:18;;;;;;;;;;;;;;;8.83;72.76;97480.69;8396033;28;19920;-70
2022/04/07 01:28:19;;;;;;;;;;;;;;;8.87;72.91;97468.16;8389137;28;19921;-70
2022/04/07 01:32:23;;;;;;;;;;;;;;;9.04;72.71;97469.03;8410996;28;19970;-70
2022/04/07 01:36:24;;;;;;;;;;;;;;;9.08;72.62;97464.53;8396657;28;19990;-71
2022/04/07 01:40:27;;;;;;;;;;;;;;;9.12;72.63;97470.81;8399501;28;19950;-70
2022/04/07 01:44:28;;;;;;;;;;;;;;;9.12;72.59;97465.44;8405143;28;19928;-70
2022/04/07 01:48:29;;;;;;;;;;;;;;;9.19;72.15;97465.66;8408988;28;20219;-71
2022/04/07 01:52:30;;;;;;;;;;;;;;;9.16;72.35;97460.94;8377498;28;20004;-71
2022/04/07 01:56:31;;;;;;;;;;;;;;;9.20;72.01;97461.84;8393597;28;19928;-70
2022/04/07 02:00:31;;;;;;;;;;;;;;;9.14;72.23;97455.13;8391225;28;20438;-70
2022/04/07 02:04:32;;;;;;;;;;;;;;;9.04;72.74;97448.25;8358978;28;20003;-70
2022/04/07 02:08:33;;;;;;;;;;;;;;;8.99;72.70;97455.81;8397067;28;19920;-71
2022/04/07 02:12:37;;;;;;;;;;;;;;;8.99;72.50;97445.03;8427094;28;19931;-71
2022/04/07 02:16:37;;;;;;;;;;;;;;;8.93;72.87;97447.19;8422733;28;20006;-71
2022/04/07 02:20:38;;;;;;;;;;;;;;;8.84;73.23;97449.97;8428383;28;20046;-70
2022/04/07 02:24:40;;;;;;;;;;;;;;;8.83;73.21;97453.78;8424713;28;19959;-70
2022/04/07 02:28:42;;;;;;;;;;;;;;;8.81;73.41;97450.66;8426376;28;19920;-70
2022/04/07 02:32:42;;;;;;;;;;;;;;;8.76;73.58;97448.19;8421603;28;19966;-71
2022/04/07 02:36:43;;;;;;;;;;;;;;;8.68;73.73;97451.75;8422210;28;19920;-70
2022/04/07 02:40:44;;;;;;;;;;;;;;;8.63;73.89;97448.50;8428787;28;19923;-70
2022/04/07 02:44:45;;;;;;;;;;;;;;;8.65;73.88;97449.75;8428180;28;19939;-70
2022/04/07 02:48:45;;;;;;;;;;;;;;;8.72;73.55;97447.28;8413488;28;19965;-71
2022/04/07 02:52:46;;;;;;;;;;;;;;;8.79;73.08;97436.72;8392416;28;19944;-70
2022/04/07 02:56:47;;;;;;;;;;;;;;;9.04;71.44;97436.72;8393810;28;19924;-70
2022/04/07 03:00:51;;;;;;;;;;;;;;;9.07;71.08;97441.44;8395120;28;19928;-70
2022/04/07 03:04:52;;;;;;;;;;;;;;;8.98;71.46;97435.38;8394713;28;19920;-70
2022/04/07 03:08:53;;;;;;;;;;;;;;;8.94;71.48;97437.94;8393986;28;19932;-70
2022/04/07 03:12:53;;;;;;;;;;;;;;;8.99;71.25;97434.28;8394431;28;20340;-70
2022/04/07 03:16:54;;;;;;;;;;;;;;;8.98;70.99;97433.47;8358939;28;19924;-71
2022/04/07 03:20:55;;;;;;;;;;;;;;;8.82;71.54;97425.31;8393713;28;20015;-70
2022/04/07 03:24:56;;;;;;;;;;;;;;;8.65;72.03;97430.91;8394175;28;20015;-71
2022/04/07 03:28:56;;;;;;;;;;;;;;;8.61;72.27;97423.84;8385715;28;19921;-70
2022/04/07 03:32:57;;;;;;;;;;;;;;;8.40;72.93;97426.63;8390944;28;20296;-70
2022/04/07 03:36:58;;;;;;;;;;;;;;;8.34;73.08;97425.28;8393454;28;19920;-71
2022/04/07 03:40:59;;;;;;;;;;;;;;;8.27;73.56;97425.00;8392162;28;20406;-70
2022/04/07 03:44:59;;;;;;;;;;;;;;;8.22;73.87;97417.16;8404195;28;19920;-70
2022/04/07 03:49:00;;;;;;;;;;;;;;;8.14;74.03;97410.00;8388703;28;20299;-71
2022/04/07 03:53:01;;;;;;;;;;;;;;;8.09;74.21;97412.91;8367008;28;19921;-70
2022/04/07 03:57:02;;;;;;;;;;;;;;;7.98;74.37;97413.28;8393967;28;19920;-70
2022/04/07 04:01:03;;;;;;;;;;;;;;;7.90;75.18;97410.69;8394039;28;19921;-70
2022/04/07 04:05:04;;;;;;;;;;;;;;;7.89;75.26;97419.88;8400568;28;19939;-71
2022/04/07 04:09:05;;;;;;;;;;;;;;;7.89;75.45;97409.91;8398765;28;20023;-70
2022/04/07 04:13:05;;;;;;;;;;;;;;;7.92;75.51;97408.47;8400052;28;20061;-70
2022/04/07 04:17:06;;;;;;;;;;;;;;;7.97;75.45;97411.75;8380900;28;19973;-70
2022/04/07 04:21:07;;;;;;;;;;;;;;;8.01;75.37;97407.28;8398967;28;19920;-71
2022/04/07 04:25:08;;;;;;;;;;;;;;;8.03;75.58;97404.25;8396398;28;19999;-70
2022/04/07 04:29:09;;;;;;;;;;;;;;;7.97;75.96;97401.00;8394589;28;19920;-70
2022/04/07 04:33:10;;;;;;;;;;;;;;;8.05;75.79;97402.00;8362270;28;19927;-70
2022/04/07 04:37:11;;;;;;;;;;;;;;;8.14;75.76;97399.22;8395568;28;19920;-70
2022/04/07 04:41:12;;;;;;;;;;;;;;;8.22;75.75;97398.34;8395211;28;20303;-70
2022/04/07 04:45:13;;;;;;;;;;;;;;;8.21;75.83;97399.44;8361578;28;19928;-70
2022/04/07 04:49:13;;;;;;;;;;;;;;;8.34;75.78;97387.63;8394885;28;20011;-70
2022/04/07 04:53:14;;;;;;;;;;;;;;;8.30;76.04;97392.13;8360022;28;20015;-70
2022/04/07 04:57:15;;;;;;;;;;;;;;;8.22;76.09;97379.50;8394689;28;19955;-70
2022/04/07 05:01:16;;;;;;;;;;;;;;;8.14;76.67;97385.78;8377994;28;20441;-70
2022/04/07 05:05:16;;;;;;;;;;;;;;;8.12;77.20;97379.94;8395339;28;19963;-71
2022/04/07 05:09:17;;;;;;;;;;;;;;;8.22;76.67;97379.50;8398465;28;20010;-70
2022/04/07 05:13:18;;;;;;;;;;;;;;;8.34;76.36;97376.88;8396528;28;20411;-70
2022/04/07 05:17:19;;;;;;;;;;;;;;;8.44;75.93;97387.19;8398245;28;19921;-70
2022/04/07 05:21:20;;;;;;;;;;;;;;;8.38;76.12;97388.53;8413010;28;19920;-70
2022/04/07 05:25:20;;;;;;;;;;;;;;;8.51;75.37;97376.66;8397155;28;19934;-70
2022/04/07 05:29:21;;;;;;;;;;;;;;;8.52;75.69;97367.44;8397803;28;20350;-71
2022/04/07 05:33:22;;;;;;;;;;;;;;;8.59;75.24;97373.06;8378608;28;19920;-70
2022/04/07 05:37:24;;;;;;;;;;;;;;;8.57;75.36;97367.22;8397089;28;19920;-70
2022/04/07 05:41:25;;;;;;;;;;;;;;;8.65;74.95;97366.31;8397507;28;20245;-70
2022/04/07 05:45:25;;;;;;;;;;;;;;;8.69;74.57;97367.22;8394573;28;20415;-70
2022/04/07 05:49:26;;;;;;;;;;;;;;;8.76;74.37;97362.06;8396829;28;19920;-70
2022/04/07 05:53:27;;;;;;;;;;;;;;;8.74;74.79;97353.53;8397081;28;19963;-70
2022/04/07 05:57:30;;;;;;;;;;;;;;;8.75;74.67;97349.72;8396906;28;19921;-70
2022/04/07 06:01:30;;;;;;;;;;;;;;;8.74;74.95;97347.34;8394811;28;19924;-70
2022/04/07 06:05:31;;;;;;;;;;;;;;;8.75;75.00;97344.34;8396306;28;19953;-71
2022/04/07 06:09:34;;;;;;;;;;;;;;;8.75;74.81;97349.72;8395721;28;20015;-71
2022/04/07 06:13:36;;;;;;;;;;;;;;;8.64;75.58;97348.59;8396070;28;19921;-70
2022/04/07 06:17:41;;;;;;;;;;;;;;;8.54;76.43;97343.69;8395989;28;19920;-71
2022/04/07 06:21:43;;;;;;;;;;;;;;;8.49;76.45;97338.53;8395738;28;19927;-71
2022/04/07 06:25:43;;;;;;;;;;;;;;;8.40;77.39;97332.50;8394833;28;19920;-70
2022/04/07 06:29:44;;;;;;;;;;;;;;;8.44;77.07;97349.53;8395112;28;19927;-70
2022/04/07 06:33:45;;;;;;;;;;;;;;;8.64;76.62;97343.22;8395568;28;19955;-70
2022/04/07 06:37:53;;;;;;;;;;;;;;;8.82;76.40;97339.19;8395749;28;19920;-70
2022/04/07 06:41:53;;;;;;;;;;;;;;;8.98;76.39;97330.38;8395221;28;19950;-70
2022/04/07 06:45:54;;;;;;;;;;;;;;;9.02;75.89;97333.97;8394223;28;20276;-70
2022/04/07 06:49:55;;;;;;;;;;;;;;;9.22;75.27;97335.69;8394921;28;19959;-70
2022/04/07 06:53:56;;;;;;;;;;;;;;;9.44;75.07;97324.38;8393533;28;19920;-71
2022/04/07 06:57:57;;;;;;;;;;;;;;;9.73;73.45;97323.19;8395317;28;19927;-70
2022/04/07 07:01:58;;;;;;;;;;;;;;;9.95;72.75;97314.53;8394957;28;19936;-71
2022/04/07 07:05:59;;;;;;;;;;;;;;;10.02;72.66;97313.94;8393224;28;19932;-70
2022/04/07 07:10:00;;;;;;;;;;;;;;;10.28;72.32;97322.28;8408562;28;20297;-70
2022/04/07 07:14:00;;;;;;;;;;;;;;;10.48;72.18;97310.44;8403225;28;20401;-70
2022/04/07 07:18:01;;;;;;;;;;;;;;;10.71;70.88;97312.47;8418566;28;20399;-70
2022/04/07 07:22:02;;;;;;;;;;;;;;;10.83;70.62;97315.06;8407584;28;20007;-70
2022/04/07 07:26:03;;;;;;;;;;;;;;;11.05;70.06;97306.25;8408724;28;20007;-70
2022/04/07 07:30:04;;;;;;;;;;;;;;;11.21;69.25;97298.84;8418428;28;20035;-70
2022/04/07 07:34:05;;;;;;;;;;;;;;;11.27;68.40;97292.03;8382544;28;19920;-70
2022/04/07 07:38:07;;;;;;;;;;;;;;;11.48;68.01;97288.16;8414743;28;19974;-71
2022/04/07 07:42:08;;;;;;;;;;;;;;;11.75;65.94;97284.44;8413694;28;19928;-71
2022/04/07 07:46:08;;;;;;;;;;;;;;;11.89;65.99;97273.09;8401482;28;19921;-71
2022/04/07 07:50:11;;;;;;;;;;;;;;;11.97;66.22;97264.72;8400559;28;19920;-71
2022/04/07 07:54:13;;;;;;;;;;;;;;;12.21;64.21;97261.63;8401112;28;19974;-71
2022/04/07 07:58:14;;;;;;;;;;;;;;;12.18;65.12;97254.25;8415716;28;19927;-70
2022/04/07 08:02:14;;;;;;;;;;;;;;;12.54;64.21;97250.13;8400984;28;19969;-70
2022/04/07 08:06:15;;;;;;;;;;;;;;;12.75;63.64;97241.50;8400324;28;19963;-70
2022/04/07 08:10:16;;;;;;;;;;;;;;;12.86;62.82;97253.25;8400988;28;20014;-70
2022/04/07 08:14:17;;;;;;;;;;;;;;;12.90;62.44;97251.38;8398451;28;20482;-70
2022/04/07 08:18:17;;;;;;;;;;;;;;;12.87;63.06;97254.81;8400524;28;19924;-70
2022/04/07 08:22:18;;;;;;;;;;;;;;;12.93;62.69;97250.66;8400241;28;19966;-70
2022/04/07 08:26:19;;;;;;;;;;;;;;;12.89;62.18;97249.81;8400148;28;19956;-72
2022/04/07 08:30:20;;;;;;;;;;;;;;;12.96;61.73;97247.19;8399851;28;19921;-70
2022/04/07 08:34:21;;;;;;;;;;;;;;;13.07;62.63;97234.53;8399835;28;19965;-70
2022/04/07 08:38:22;;;;;;;;;;;;;;;13.43;61.48;97245.81;8399071;28;19966;-70
2022/04/07 08:42:23;;;;;;;;;;;;;;;13.36;62.30;97230.25;8397191;28;19964;-70
2022/04/07 08:46:24;;;;;;;;;;;;;;;13.37;61.65;97236.47;8399912;28;19969;-71
2022/04/07 08:50:25;;;;;;;;;;;;;;;13.22;61.45;97221.19;8398418;28;20315;-70
2022/04/07 08:54:26;;;;;;;;;;;;;;;13.19;62.22;97220.00;8398478;28;19928;-71
2022/04/07 08:58:26;;;;;;;;;;;;;;;13.25;60.55;97215.03;8399726;28;19987;-71
2022/04/07 09:02:27;;;;;;;;;;;;;;;13.16;60.92;97214.53;8398968;28;20109;-71
2022/04/07 09:06:29;;;;;;;;;;;;;;;13.04;62.09;97197.34;8398820;28;20003;-71
2022/04/07 09:10:30;;;;;;;;;;;;;;;13.09;60.99;97205.16;8399400;28;19921;-70
2022/04/07 09:14:34;;;;;;;;;;;;;;;13.28;60.87;97201.50;8413445;28;19995;-71
2022/04/07 09:18:36;;;;;;;;;;;;;;;13.75;60.48;97202.69;8398886;28;19997;-71
2022/04/07 09:22:37;;;;;;;;;;;;;;;13.98;57.36;97188.94;8398876;28;20066;-70
2022/04/07 09:26:44;;;;;;;;;;;;;;;14.06;55.66;97174.28;8397485;28;20373;-70
2022/04/07 09:30:48;;;;;;;;;;;;;;;14.35;54.30;97181.41;8363397;28;19979;-72
2022/04/07 09:34:53;;;;;;;;;;;;;;;14.49;53.00;97176.06;8395825;28;19976;-70
2022/04/07 09:38:54;;;;;;;;;;;;;;;14.47;51.64;97189.28;8396727;28;19974;-71
2022/04/07 09:42:58;;;;;;;;;;;;;;;14.38;51.61;97169.06;8396898;28;20442;-72
2022/04/07 09:46:59;;;;;;;;;;;;;;;14.28;52.22;97165.06;8397187;28;19995;-72
2022/04/07 09:51:01;;;;;;;;;;;;;;;14.08;53.37;97161.09;8395706;28;19974;-71
2022/04/07 09:55:03;;;;;;;;;;;;;;;13.89;53.32;97143.91;8396227;28;20058;-71
2022/04/07 09:59:07;;;;;;;;;;;;;;;13.79;53.12;97138.41;8395864;28;20067;-72
2022/04/07 10:03:10;;;;;;;;;;;;;;;13.71;53.92;97143.00;8377835;28;20057;-71
2022/04/07 10:07:12;;;;;;;;;;;;;;;13.65;54.18;97149.91;8393772;28;19998;-70
2022/04/07 10:11:32;;;;;;;;;;;;;;;13.83;54.00;97129.13;8416758;28;20460;-73
2022/04/07 10:15:35;;;;;;;;;;;;;;;13.87;53.09;97121.78;8435563;28;19974;-71
2022/04/07 10:19:39;;;;;;;;;;;;;;;13.78;53.65;97118.66;8439129;28;20349;-70
2022/04/07 10:23:46;;;;;;;;;;;;;;;13.76;54.06;97096.53;8428557;28;19967;-71
2022/04/07 10:27:50;;;;;;;;;;;;;;;13.85;53.09;97088.81;8411303;28;20435;-71
2022/04/07 10:32:19;;;;;;;;;;;;;;;14.07;53.63;97083.53;8433433;28;20448;-72
2022/04/07 10:36:21;;;;;;;;;;;;;;;14.56;52.25;97061.25;8442781;28;20369;-71
2022/04/07 10:40:32;;;;;;;;;;;;;;;14.96;51.57;97060.19;8424266;28;20513;-71
2022/04/07 10:44:32;;;;;;;;;;;;;;;15.01;50.62;97043.50;8430414;28;20311;-71
2022/04/07 10:48:34;;;;;;;;;;;;;;;15.19;50.12;97022.53;8412257;28;20026;-72
2022/04/07 10:52:35;;;;;;;;;;;;;;;15.54;48.93;97008.94;8410702;28;19967;-71
2022/04/07 10:56:39;;;;;;;;;;;;;;;15.11;47.48;97010.88;8404261;28;20342;-71
2022/04/07 11:00:39;;;;;;;;;;;;;;;14.92;49.43;97002.31;8412788;28;19975;-70
2022/04/07 11:04:40;;;;;;;;;;;;;;;14.99;49.78;96986.03;8409713;28;20006;-71
2022/04/07 11:09:14;;;;;;;;;;;;;;;14.87;50.97;96994.56;8394915;28;20077;-71
2022/04/07 11:13:15;;;;;;;;;;;;;;;15.06;49.83;96986.03;8401534;28;20366;-71
2022/04/07 11:17:22;;;;;;;;;;;;;;;15.22;49.24;96991.84;8376796;28;20007;-70
2022/04/07 11:21:25;;;;;;;;;;;;;;;15.03;48.51;96981.34;8411658;28;20022;-71
2022/04/07 11:25:35;;;;;;;;;;;;;;;14.98;49.45;96960.78;8386505;28;19967;-71
2022/04/07 11:29:41;;;;;;;;;;;;;;;14.87;47.55;96975.53;8396100;28;19983;-71
2022/04/07 11:33:42;;;;;;;;;;;;;;;15.10;48.31;96954.19;8392334;28;20122;-70
2022/04/07 11:37:43;;;;;;;;;;;;;;;15.37;47.95;96952.59;8383580;28;19974;-71
2022/04/07 11:41:44;;;;;;;;;;;;;;;15.90;46.74;96946.25;8386085;28;19970;-71
2022/04/07 11:45:45;;;;;;;;;;;;;;;16.04;44.77;96925.16;8416650;28;20475;-71
2022/04/07 11:49:47;;;;;;;;;;;;;;;16.22;44.17;96925.06;8410334;28;20018;-71
2022/04/07 11:53:52;;;;;;;;;;;;;;;16.27;44.15;96911.03;8399185;28;19979;-72
2022/04/07 11:57:57;;;;;;;;;;;;;;;15.98;43.26;96894.06;8399785;28;19998;-70
2022/04/07 12:01:58;;;;;;;;;;;;;;;16.01;43.17;96892.53;8397124;28;20432;-69
2022/04/07 12:06:00;;;;;;;;;;;;;;;16.33;44.71;96900.50;8400611;28;19971;-69
2022/04/07 12:10:08;;;;;;;;;;;;;;;16.28;43.40;96901.69;8392442;28;19991;-70
2022/04/07 12:14:09;;;;;;;;;;;;;;;16.37;43.42;96899.28;8393057;28;19971;-69
2022/04/07 12:18:10;;;;;;;;;;;;;;;16.06;43.71;96905.72;8398468;28;20016;-70
2022/04/07 12:22:12;;;;;;;;;;;;;;;15.83;44.26;96880.94;8379753;28;19971;-69
2022/04/07 12:26:13;;;;;;;;;;;;;;;15.98;44.37;96877.75;8400484;28;20032;-70
2022/04/07 12:30:17;;;;;;;;;;;;;;;16.05;43.82;96871.50;8387356;28;20427;-69
2022/04/07 12:34:21;;;;;;;;;;;;;;;16.18;44.61;96842.59;8400447;28;20260;-70
2022/04/07 12:38:22;;;;;;;;;;;;;;;16.38;43.64;96843.66;8398455;28;20058;-69
2022/04/07 12:42:23;;;;;;;;;;;;;;;16.15;44.20;96843.41;8396428;28;19971;-70
2022/04/07 12:46:24;;;;;;;;;;;;;;;16.34;42.24;96829.25;8433402;27;19971;-71
2022/04/07 12:50:26;;;;;;;;;;;;;;;16.21;42.94;96814.59;8412120;28;20366;-70
2022/04/07 12:54:27;;;;;;;;;;;;;;;16.17;43.48;96813.06;8398465;28;19967;-71
2022/04/07 12:58:29;;;;;;;;;;;;;;;16.69;44.27;96789.31;8401287;28;19978;-71
2022/04/07 13:02:41;;;;;;;;;;;;;;;16.69;41.66;96784.63;8402858;28;20429;-71
2022/04/07 13:06:42;;;;;;;;;;;;;;;16.39;41.58;96782.53;8397620;28;19983;-71
2022/04/07 13:10:43;;;;;;;;;;;;;;;16.41;41.08;96769.28;8393059;28;20035;-70
2022/04/07 13:14:44;;;;;;;;;;;;;;;17.08;41.40;96748.75;8395655;28;20003;-71
2022/04/07 13:18:45;;;;;;;;;;;;;;;17.19;40.76;96752.13;8410149;28;20006;-71
2022/04/07 13:22:46;;;;;;;;;;;;;;;17.62;40.86;96724.28;8398866;28;20021;-70
2022/04/07 13:26:49;;;;;;;;;;;;;;;18.27;38.22;96722.09;8399032;28;20010;-70
2022/04/07 13:30:50;;;;;;;;;;;;;;;18.47;38.43;96712.00;8400668;28;19971;-69
2022/04/07 13:34:51;;;;;;;;;;;;;;;18.33;38.45;96695.84;8399337;28;20437;-69
2022/04/07 13:38:53;;;;;;;;;;;;;;;17.60;38.55;96693.94;8400123;28;20074;-70
2022/04/07 13:43:04;;;;;;;;;;;;;;;16.83;40.11;96691.03;8396897;28;20005;-71
2022/04/07 13:47:06;;;;;;;;;;;;;;;16.62;40.57;96685.81;8394304;28;19994;-70
2022/04/07 13:51:07;;;;;;;;;;;;;;;16.46;40.02;96673.50;8393102;28;19971;-70
2022/04/07 13:55:09;;;;;;;;;;;;;;;16.77;39.19;96659.94;8400014;28;19972;-70
2022/04/07 13:59:09;;;;;;;;;;;;;;;17.89;38.59;96656.03;8412593;28;19971;-70
2022/04/07 14:03:10;;;;;;;;;;;;;;;19.02;36.66;96636.75;8396968;28;19971;-70
2022/04/07 14:07:11;;;;;;;;;;;;;;;19.47;35.05;96640.44;8397448;28;19986;-70
2022/04/07 14:11:17;;;;;;;;;;;;;;;18.51;36.21;96627.97;8398731;28;19990;-70
2022/04/07 14:15:18;;;;;;;;;;;;;;;17.79;37.89;96625.00;8396140;28;20532;-71
2022/04/07 14:19:19;;;;;;;;;;;;;;;17.18;39.07;96619.66;8399303;28;19968;-71
2022/04/07 14:23:20;;;;;;;;;;;;;;;16.82;40.40;96619.38;8398281;28;20052;-71
2022/04/07 14:27:20;;;;;;;;;;;;;;;16.59;40.97;96610.34;8396988;28;19990;-71
2022/04/07 14:31:24;;;;;;;;;;;;;;;16.43;42.74;96595.34;8399122;28;20438;-70
2022/04/07 14:35:25;;;;;;;;;;;;;;;16.39;42.44;96580.97;8428227;28;19967;-70
2022/04/07 14:39:26;;;;;;;;;;;;;;;16.34;42.52;96578.69;8397312;28;19967;-71
2022/04/07 14:43:27;;;;;;;;;;;;;;;16.32;42.12;96569.38;8395495;28;19968;-70
2022/04/07 14:47:30;;;;;;;;;;;;;;;16.33;41.91;96566.28;8394050;28;20048;-71
2022/04/07 14:51:34;;;;;;;;;;;;;;;16.45;41.89;96556.75;8394614;28;19967;-70
2022/04/07 14:55:35;;;;;;;;;;;;;;;16.48;41.32;96543.13;8397734;28;19967;-69
2022/04/07 14:59:36;;;;;;;;;;;;;;;16.81;40.89;96535.31;8395118;28;20473;-71
2022/04/07 15:03:36;;;;;;;;;;;;;;;17.30;40.59;96547.41;8394666;28;20020;-71
2022/04/07 15:07:37;;;;;;;;;;;;;;;18.35;38.72;96548.66;8395470;28;19983;-71
2022/04/07 15:11:38;;;;;;;;;;;;;;;18.69;37.74;96549.16;8395520;28;20020;-71
2022/04/07 15:15:39;;;;;;;;;;;;;;;18.05;38.40;96566.78;8395107;28;19974;-70
2022/04/07 15:19:40;;;;;;;;;;;;;;;17.31;39.77;96541.53;8394481;28;19994;-71
2022/04/07 15:23:41;;;;;;;;;;;;;;;17.93;39.50;96547.50;8392600;28;20037;-71
2022/04/07 15:27:42;;;;;;;;;;;;;;;17.73;39.04;96550.22;8410386;28;20036;-71
2022/04/07 15:31:43;;;;;;;;;;;;;;;16.70;40.83;96535.47;8395605;28;19968;-71
2022/04/07 15:35:44;;;;;;;;;;;;;;;16.13;42.37;96529.91;8392564;28;20061;-70
2022/04/07 15:39:45;;;;;;;;;;;;;;;15.80;43.89;96539.63;8396392;28;19968;-70
2022/04/07 15:43:45;;;;;;;;;;;;;;;15.54;45.13;96546.50;8396503;28;20338;-71
2022/04/07 15:47:46;;;;;;;;;;;;;;;15.45;45.24;96540.69;8395061;28;19990;-73
2022/04/07 15:51:47;;;;;;;;;;;;;;;15.19;46.17;96522.28;8398889;28;20014;-71
2022/04/07 15:55:48;;;;;;;;;;;;;;;15.01;46.51;96516.22;8394624;28;20393;-71
2022/04/07 15:59:49;;;;;;;;;;;;;;;14.98;46.74;96506.13;8399080;28;19967;-70
2022/04/07 16:03:52;;;;;;;;;;;;;;;14.89;46.78;96516.69;8415606;28;20409;-71
2022/04/07 16:07:53;;;;;;;;;;;;;;;14.91;49.26;96511.63;8400225;28;19987;-71
2022/04/07 16:11:54;;;;;;;;;;;;;;;14.44;52.99;96494.06;8400590;28;19967;-71
2022/04/07 16:15:54;;;;;;;;;;;;;;;14.09;56.28;96500.41;8401654;28;20005;-71
2022/04/07 16:19:58;;;;;;;;;;;;;;;13.91;58.43;96495.81;8399470;28;20054;-71
2022/04/07 16:24:03;;;;;;;;;;;;;;;13.47;61.47;96468.47;8397732;28;20358;-71
2022/04/07 16:28:04;;;;;;;;;;;;;;;13.20;63.04;96456.50;8396136;28;20060;-71
2022/04/07 16:32:08;;;;;;;;;;;;;;;13.14;62.16;96444.50;8399327;28;19971;-71
2022/04/07 16:36:09;;;;;;;;;;;;;;;13.01;62.65;96431.31;8401646;28;19971;-71
2022/04/07 16:40:13;;;;;;;;;;;;;;;12.93;62.41;96421.69;8412793;28;20418;-71
2022/04/07 16:44:15;;;;;;;;;;;;;;;13.04;61.46;96411.59;8396525;28;20462;-71
2022/04/07 16:48:15;;;;;;;;;;;;;;;13.00;61.28;96400.00;8382630;28;19987;-71
2022/04/07 16:52:17;;;;;;;;;;;;;;;12.96;62.10;96385.66;8405605;28;20345;-70
2022/04/07 16:56:18;;;;;;;;;;;;;;;12.97;61.68;96400.75;8405318;28;19982;-71
2022/04/07 17:00:19;;;;;;;;;;;;;;;12.90;62.21;96398.06;8409087;28;19971;-72
2022/04/07 17:04:19;;;;;;;;;;;;;;;12.99;60.82;96398.44;8408784;28;20499;-71
2022/04/07 17:08:21;;;;;;;;;;;;;;;13.07;59.54;96391.84;8405436;28;20071;-71
2022/04/07 17:12:21;;;;;;;;;;;;;;;13.15;59.36;96394.59;8394496;28;20005;-72
2022/04/07 17:16:23;;;;;;;;;;;;;;;13.24;58.30;96365.91;8397468;28;19966;-71
2022/04/07 17:20:24;;;;;;;;;;;;;;;13.28;58.26;96360.47;8409337;28;19967;-71
2022/04/07 17:24:25;;;;;;;;;;;;;;;13.31;58.50;96348.84;8398468;28;20366;-71
2022/04/07 17:28:26;;;;;;;;;;;;;;;13.18;59.42;96361.28;8407284;28;19983;-71
2022/04/07 17:32:27;;;;;;;;;;;;;;;13.11;60.47;96346.56;8399821;28;19974;-72
2022/04/07 17:36:28;;;;;;;;;;;;;;;12.87;63.62;96331.13;8406101;28;19968;-72
2022/04/07 17:40:29;;;;;;;;;;;;;;;12.79;63.67;96332.31;8412115;28;20475;-71
2022/04/07 17:44:30;;;;;;;;;;;;;;;12.69;63.40;96330.38;8397206;28;20012;-71
2022/04/07 17:48:31;;;;;;;;;;;;;;;12.77;62.68;96347.41;8397576;28;20004;-71
2022/04/07 17:52:33;;;;;;;;;;;;;;;12.82;62.19;96333.47;8402196;28;20020;-71
2022/04/07 17:56:35;;;;;;;;;;;;;;;12.71;63.26;96344.31;8397493;28;19974;-71
2022/04/07 18:00:36;;;;;;;;;;;;;;;12.75;62.70;96339.66;8402274;28;19968;-71
2022/04/07 18:04:37;;;;;;;;;;;;;;;12.57;66.38;96338.94;8412252;28;19967;-70
2022/04/07 18:08:38;;;;;;;;;;;;;;;12.39;68.84;96333.50;8413401;28;19994;-71
2022/04/07 18:12:39;;;;;;;;;;;;;;;11.88;73.38;96369.03;8408349;28;20350;-70
2022/04/07 18:16:40;;;;;;;;;;;;;;;11.93;74.53;96576.88;8389914;28;19967;-71
2022/04/07 18:20:41;;;;;;;;;;;;;;;10.16;82.83;96613.03;8392036;28;19967;-71
2022/04/07 18:24:43;;;;;;;;;;;;;;;9.08;87.91;96602.94;8392598;28;20331;-70
2022/04/07 18:28:44;;;;;;;;;;;;;;;8.54;92.21;96584.28;8391414;28;20034;-70
2022/04/07 18:32:45;;;;;;;;;;;;;;;8.36;92.49;96583.91;8392327;28;20438;-71
2022/04/07 18:36:48;;;;;;;;;;;;;;;8.17;93.74;96563.19;8392702;28;20063;-69
2022/04/07 18:40:53;;;;;;;;;;;;;;;8.07;95.19;96518.84;8355216;28;19967;-70
2022/04/07 18:44:54;;;;;;;;;;;;;;;8.06;94.99;96517.28;8383305;28;20439;-71
2022/04/07 18:48:55;;;;;;;;;;;;;;;8.07;95.40;96534.19;8387926;28;20022;-70
2022/04/07 18:52:57;;;;;;;;;;;;;;;8.12;95.68;96536.59;8387537;28;19999;-70
2022/04/07 18:56:59;;;;;;;;;;;;;;;8.24;95.39;96554.47;8392665;28;20029;-70
2022/04/07 19:01:01;;;;;;;;;;;;;;;8.25;95.97;96550.66;8394130;28;19968;-69
2022/04/07 19:05:03;;;;;;;;;;;;;;;8.34;94.92;96462.50;8394336;28;19968;-70
2022/04/07 19:09:07;;;;;;;;;;;;;;;8.41;91.98;96465.31;8391728;28;20034;-70
2022/04/07 19:13:10;;;;;;;;;;;;;;;8.37;92.89;96472.53;8391685;28;20078;-70
2022/04/07 19:17:12;;;;;;;;;;;;;;;8.50;91.98;96438.19;8391240;28;19994;-69
2022/04/07 19:21:15;;;;;;;;;;;;;;;8.49;92.31;96448.16;8391316;28;20007;-71
2022/04/07 19:25:17;;;;;;;;;;;;;;;8.58;91.83;96472.91;8374747;28;19975;-71
2022/04/07 19:29:19;;;;;;;;;;;;;;;8.53;93.11;96469.72;8394044;28;19983;-70
2022/04/07 19:33:21;;;;;;;;;;;;;;;8.61;92.56;96491.03;8392505;28;20112;-70
2022/04/07 19:37:22;;;;;;;;;;;;;;;8.58;92.80;96499.81;8390548;28;19967;-70
2022/04/07 19:41:23;;;;;;;;;;;;;;;8.58;92.84;96494.41;8390470;28;20434;-72
2022/04/07 19:45:24;;;;;;;;;;;;;;;8.61;92.29;96482.97;8393189;28;19971;-72
2022/04/07 19:49:47;;;;;;;;;;;;;;;8.68;91.74;96488.44;8396373;28;20036;-71
2022/04/07 19:53:48;;;;;;;;;;;;;;;8.70;91.63;96513.09;8393147;28;20426;-71
2022/04/07 19:57:49;;;;;;;;;;;;;;;8.75;91.12;96493.94;8329202;28;20077;-71
2022/04/07 20:01:50;;;;;;;;;;;;;;;8.69;91.46;96473.84;8393779;28;20397;-71
2022/04/07 20:05:51;;;;;;;;;;;;;;;8.69;91.17;96484.63;8355877;28;20385;-71
2022/04/07 20:09:54;;;;;;;;;;;;;;;8.71;91.28;96503.88;8388437;28;19991;-70
2022/04/07 20:13:55;;;;;;;;;;;;;;;8.81;90.76;96530.19;8389200;28;19994;-70
2022/04/07 20:17:56;;;;;;;;;;;;;;;8.88;89.19;96492.59;8388626;28;20019;-70
2022/04/07 20:21:57;;;;;;;;;;;;;;;8.87;89.45;96512.59;8332249;28;20677;-70
2022/04/07 20:26:02;;;;;;;;;;;;;;;8.79;89.43;96430.19;8372323;28;19967;-70
2022/04/07 20:30:03;;;;;;;;;;;;;;;8.71;89.77;96407.03;8390818;28;19990;-70
2022/04/07 20:34:04;;;;;;;;;;;;;;;8.56;90.33;96421.41;8392552;28;20581;-70
2022/04/07 20:38:08;;;;;;;;;;;;;;;8.47;90.09;96439.66;8373753;28;20001;-70
2022/04/07 20:42:09;;;;;;;;;;;;;;;8.28;90.65;96448.56;8393099;28;20346;-70
2022/04/07 20:46:10;;;;;;;;;;;;;;;8.12;91.09;96460.53;8395279;28;20317;-71
2022/04/07 20:50:11;;;;;;;;;;;;;;;8.00;91.58;96475.69;8379879;28;20025;-70
2022/04/07 20:54:12;;;;;;;;;;;;;;;8.02;91.33;96511.06;8398072;28;19971;-70
2022/04/07 20:58:13;;;;;;;;;;;;;;;8.05;91.12;96510.34;8398189;28;19971;-71
2022/04/07 21:02:14;;;;;;;;;;;;;;;8.10;90.22;96500.41;8379104;28;19990;-70
2022/04/07 21:06:15;;;;;;;;;;;;;;;8.36;86.92;96519.38;8412612;28;19971;-71